Aviation Digital Data Service (ADDS)

Output produced by METARs form (0708 UTC 24 March 2019)
found at http://www.aviationweather.gov/metar/data/
 
KM40 240655Z AUTO 00000KT 10SM CLR 05/05 A3019 RMK AO2
KPMU 240655Z AUTO 00000KT 10SM FEW027 FEW047 BKN060 09/07 A3015 RMK AO2
KHSA 240152Z 00000KT 10SM SCT150 12/10 A3021
KCKM 240655Z AUTO 12005KT 10SM FEW037 SCT049 SCT055 11/06 A3014 RMK A01
KRNV 240655Z AUTO 13006KT 10SM CLR 14/06 A3013 RMK AO2 T01370055
K0R0 240655Z AUTO 08003KT 10SM +RA CLR 07/06 A3021 RMK AO2
KGTR 240656Z AUTO 21004KT 10SM CLR 08/05 A3019 RMK AO2 SLP225 T00780050
KGTR 240521Z 2406/2506 16004KT P6SM SCT250 
     FM241600 19010G20KT P6SM SCT090 BKN250 
     FM242200 20009KT P6SM BKN090
       
KCRX 240655Z AUTO 00000KT 10SM CLR 10/04 A3018 RMK AO2
KGLH 240653Z AUTO 14007KT 10SM SCT110 12/06 A3013 RMK AO2 SLP209 T01220056
KGLH 240521Z 2406/2506 14005KT P6SM SCT090 BKN250 
     FM241700 19011G20KT P6SM VCSH BKN090 
     FM242100 20013G21KT P6SM VCTS BKN050CB
       
KGWO 240653Z AUTO 17007KT 10SM CLR 14/05 A3015 RMK AO2 SLP209 T01390050
KGWO 240521Z 2406/2506 14006KT P6SM SCT100 BKN250 
     FM250100 19005KT P6SM VCTS BKN050CB
       
KGPT 240653Z AUTO 00000KT 6SM CLR 09/08 A3019 RMK AO2 SLP222 T00890078
KGPT 240533Z 2406/2506 VRB03KT P6SM SKC 
     FM241000 00000KT 2SM BR FEW250 
     FM241400 00000KT P6SM FEW250
       
KHBG 240653Z AUTO 00000KT 10SM CLR 07/05 A3020 RMK AO2 SLP226 T00720050
KHBG 240521Z 2406/2506 18003KT P6SM SCT250
       
KPIB 240656Z AUTO 00000KT 10SM CLR 07/06 A3020 RMK AO2 SLP226 T00720056
KPIB 240521Z 2406/2506 18003KT P6SM SCT250
       
KHKS 240653Z AUTO 18004KT 10SM CLR 13/08 A3018 RMK AO2 SLP213 T01330083
KHKS 240521Z 2406/2506 18004KT P6SM SCT100 BKN250 
     FM241800 18008KT P6SM BKN100 
     FM242000 18006KT P6SM BKN050
       
KJAN 240654Z AUTO 15005KT 10SM CLR 12/07 A3019 RMK AO2 SLP219 T01170072
KJAN 240521Z 2406/2506 18004KT P6SM SCT100 BKN250 
     FM241800 18008KT P6SM BKN100 
     FM242000 18006KT P6SM BKN050
       
KLUL 240655Z AUTO 00000KT 10SM CLR 08/07 A3019 RMK A02 T00820069
KMBO 240655Z AUTO 19004KT 10SM CLR 12/08 A3017 RMK AO2 PWINO
KMCB 240653Z AUTO 00000KT 10SM CLR 09/07 A3018 RMK AO2 SLP218 T00940067
KMCB 240533Z 2406/2506 VRB03KT P6SM SKC 
     FM241600 18005KT P6SM FEW250 
     FM250000 VRB04KT P6SM FEW200
       
KMEI 240658Z AUTO 00000KT 10SM CLR 08/05 A3020 RMK AO2 SLP223 T00830050
KMEI 240521Z 2406/2506 20004KT P6SM SCT250 
     FM242300 19004KT P6SM BKN100
       
KHEZ 240656Z AUTO 16003KT 10SM CLR 12/09 A3019 RMK AO2 SLP225 T01170089
KOLV 240655Z AUTO 13004KT 5SM HZ 11/03 A3014 RMK A01
KUOX 240655Z AUTO 14005KT 10SM CLR 11/03 A3017 RMK AO2
KPQL 240653Z AUTO 00000KT 4SM BR CLR 06/05 A3020 RMK AO2 SLP228 T00610050
KJVW 240655Z AUTO 00000KT 10SM 10/10 A3018 RMK AO2
KSTF 240655Z AUTO 00000KT 10SM CLR 06/03 A3020 RMK AO2 PWINO
KUTA 240655Z AUTO 00000KT 10SM 11/05 A3015 RMK AO2 TSNO
KTUP 240653Z AUTO 36003KT 10SM CLR 09/05 A3018 RMK AO2 SLP218 T00940050 $
KTUP 240522Z 2406/2506 17003KT P6SM SCT150 BKN250 
     FM241600 21008KT P6SM OVC070 
     FM250000 19003KT P6SM BKN050
       
KVKS 240655Z AUTO 15004KT 10SM FEW049 15/08 A3017 RMK A01
K5A6 240655Z AUTO 00000KT 10SM CLR 08/06 A3017 RMK AO2 T00770064